createdAt,value
2022-11-29T00:01:37.480Z,40.00
2022-11-29T00:04:07.519Z,42.00
2022-11-29T00:06:35.720Z,40.92
2022-11-29T00:09:08.490Z,42.85
2022-11-29T00:11:55.880Z,44.83
2022-11-29T00:14:24.764Z,37.67
2022-11-29T00:16:54.717Z,42.05
2022-11-29T00:19:22.675Z,38.85
2022-11-29T00:21:50.018Z,42.53
2022-11-29T00:24:18.024Z,44.08
2022-11-29T00:26:45.032Z,41.47
2022-11-29T00:29:13.299Z,39.53
2022-11-29T00:31:41.866Z,38.83
2022-11-29T00:34:11.649Z,44.72
2022-11-29T00:36:38.840Z,41.08
2022-11-29T00:39:06.901Z,47.40
2022-11-29T00:41:34.014Z,41.30
2022-11-29T00:44:01.267Z,43.65
2022-11-29T00:46:28.355Z,42.75
2022-11-29T00:48:55.671Z,44.97
2022-11-29T00:51:22.873Z,40.20
2022-11-29T00:53:50.169Z,38.50
2022-11-29T00:56:17.469Z,44.53
2022-11-29T00:58:44.779Z,42.58
2022-11-29T01:01:12.142Z,38.60
2022-11-29T01:03:39.960Z,39.72
2022-11-29T01:06:13.398Z,41.65
2022-11-29T01:08:43.448Z,41.42
2022-11-29T01:11:27.701Z,40.95
2022-11-29T01:13:59.000Z,38.45
2022-11-29T01:16:30.455Z,38.65
2022-11-29T01:19:00.572Z,41.85
2022-11-29T01:21:27.605Z,40.75
2022-11-29T01:23:57.542Z,39.45
2022-11-29T01:26:27.972Z,40.53
2022-11-29T01:28:56.662Z,42.80
2022-11-29T01:31:29.768Z,39.08
2022-11-29T01:33:59.533Z,42.47
2022-11-29T01:36:27.711Z,40.17
2022-11-29T01:38:55.302Z,39.38
2022-11-29T01:41:30.689Z,36.47
2022-11-29T01:44:00.574Z,38.55
2022-11-29T01:46:30.861Z,42.20
2022-11-29T01:49:07.804Z,37.33
2022-11-29T01:51:37.297Z,36.92
2022-11-29T01:54:05.799Z,39.13
2022-11-29T01:56:34.742Z,40.47
2022-11-29T01:59:08.801Z,36.70
2022-11-29T02:01:37.506Z,39.38
2022-11-29T02:04:06.002Z,32.70
2022-11-29T02:06:33.808Z,41.72
2022-11-29T02:09:01.255Z,39.90
2022-11-29T02:11:56.182Z,38.15
2022-11-29T02:14:26.451Z,34.30
2022-11-29T02:17:35.620Z,33.53
2022-11-29T02:20:05.742Z,37.90
2022-11-29T02:22:47.975Z,33.08
2022-11-29T02:25:37.489Z,46.67
2022-11-29T02:28:10.750Z,43.40
2022-11-29T02:30:53.336Z,42.78
2022-11-29T02:33:54.315Z,42.92
2022-11-29T02:36:50.116Z,40.40
2022-11-29T02:39:32.346Z,45.08
2022-11-29T02:42:15.693Z,46.25
2022-11-29T02:45:00.838Z,45.38
2022-11-29T02:47:44.076Z,45.07
2022-11-29T02:50:13.751Z,46.17
2022-11-29T02:53:18.608Z,43.97
2022-11-29T02:55:56.083Z,45.63
2022-11-29T02:58:26.422Z,50.20
2022-11-29T03:01:40.331Z,44.80
2022-11-29T03:04:23.464Z,47.03
2022-11-29T03:06:56.758Z,40.33
2022-11-29T03:09:46.782Z,42.72
2022-11-29T03:12:13.685Z,44.97
2022-11-29T03:14:40.913Z,48.35
2022-11-29T03:17:20.235Z,40.95
2022-11-29T03:20:09.506Z,41.92
2022-11-29T03:23:04.051Z,45.45
2022-11-29T03:25:42.536Z,41.03
2022-11-29T03:28:38.648Z,42.00
2022-11-29T03:31:14.223Z,42.15
2022-11-29T03:33:48.529Z,41.42
2022-11-29T03:36:40.032Z,43.88
2022-11-29T03:39:17.318Z,41.13
2022-11-29T03:41:51.697Z,40.88
2022-11-29T03:44:22.644Z,47.10
2022-11-29T03:47:07.239Z,45.22
2022-11-29T03:49:46.613Z,43.78
2022-11-29T03:52:27.218Z,43.30
2022-11-29T03:54:57.191Z,41.58
2022-11-29T03:57:42.426Z,44.47
2022-11-29T04:00:12.923Z,45.90
2022-11-29T04:03:09.580Z,47.03
2022-11-29T04:05:48.593Z,42.40
2022-11-29T04:08:21.803Z,43.22
2022-11-29T04:11:13.906Z,49.00
2022-11-29T04:14:02.527Z,42.97
2022-11-29T04:16:42.206Z,43.15
2022-11-29T04:19:37.494Z,45.17
2022-11-29T04:22:47.847Z,52.85
2022-11-29T04:25:39.220Z,49.45
2022-11-29T04:28:37.082Z,48.30
2022-11-29T04:31:25.223Z,44.30
2022-11-29T04:34:24.738Z,48.50
2022-11-29T04:37:19.993Z,50.40
2022-11-29T04:40:08.792Z,46.00
2022-11-29T04:42:57.632Z,51.63
2022-11-29T04:45:44.444Z,51.00
2022-11-29T04:48:20.675Z,46.72
2022-11-29T04:56:36.803Z,54.83
2022-11-29T04:59:23.265Z,50.40
2022-11-29T05:02:28.798Z,52.00
2022-11-29T05:04:59.122Z,59.28
2022-11-29T05:08:10.713Z,54.15
2022-11-29T05:11:08.398Z,57.05
2022-11-29T05:13:59.670Z,57.30
2022-11-29T05:16:33.087Z,55.38
2022-11-29T05:19:18.359Z,52.92
2022-11-29T05:22:13.014Z,53.08
2022-11-29T05:24:46.514Z,54.03
2022-11-29T05:27:37.843Z,55.20
2022-11-29T05:30:14.184Z,55.25
2022-11-29T05:33:02.845Z,55.22
2022-11-29T05:35:50.875Z,56.40
2022-11-29T05:38:40.459Z,54.45
2022-11-29T05:41:39.502Z,56.20
2022-11-29T05:44:15.561Z,52.95
2022-11-29T05:49:46.561Z,53.10
2022-11-29T05:52:25.102Z,54.45
2022-11-29T05:55:14.002Z,56.67
2022-11-29T05:57:43.976Z,59.13
2022-11-29T06:00:14.631Z,56.42
2022-11-29T06:03:06.335Z,54.80
2022-11-29T06:05:58.421Z,55.53
2022-11-29T06:08:44.657Z,50.08
2022-11-29T06:11:37.719Z,55.58
2022-11-29T06:14:24.410Z,58.80
2022-11-29T06:17:49.910Z,51.83
2022-11-29T06:20:38.181Z,56.10
2022-11-29T06:23:30.158Z,51.65
2022-11-29T06:26:03.483Z,49.30
2022-11-29T06:28:51.843Z,53.67
2022-11-29T06:31:18.895Z,55.58
2022-11-29T06:34:07.971Z,58.60
2022-11-29T06:36:43.553Z,53.78
2022-11-29T06:39:11.415Z,55.20
2022-11-29T06:41:40.653Z,52.90
2022-11-29T06:44:08.656Z,47.80
2022-11-29T06:46:40.959Z,54.25
2022-11-29T06:49:19.347Z,52.75
2022-11-29T06:52:02.555Z,51.30
2022-11-29T06:55:08.402Z,51.10
2022-11-29T06:57:47.372Z,50.42
2022-11-29T07:00:19.457Z,52.05
2022-11-29T07:03:08.088Z,53.63
2022-11-29T07:05:38.692Z,49.90
2022-11-29T07:08:19.132Z,46.60
2022-11-29T07:10:50.138Z,52.83
2022-11-29T07:13:18.869Z,47.83
2022-11-29T07:16:06.584Z,48.72
2022-11-29T07:18:58.819Z,51.92
2022-11-29T07:21:38.205Z,48.13
2022-11-29T07:24:08.172Z,49.33
2022-11-29T07:26:46.430Z,48.47
2022-11-29T07:29:47.880Z,49.78
2022-11-29T07:32:59.864Z,46.28
2022-11-29T07:35:45.685Z,41.67
2022-11-29T07:38:22.150Z,31.55
2022-11-29T07:41:04.853Z,45.72
2022-11-29T07:43:56.895Z,44.70
2022-11-29T07:46:25.629Z,41.97
2022-11-29T07:48:55.484Z,46.58
2022-11-29T07:51:22.812Z,47.10
2022-11-29T07:53:50.160Z,45.65
2022-11-29T07:56:17.337Z,43.13
2022-11-29T07:58:44.887Z,48.22
2022-11-29T08:01:12.037Z,39.70
2022-11-29T08:03:41.651Z,42.17
2022-11-29T08:06:09.073Z,43.08
2022-11-29T08:08:43.898Z,44.15
2022-11-29T08:11:13.004Z,29.67
2022-11-29T08:13:40.294Z,41.50
2022-11-29T08:16:07.684Z,48.58
2022-11-29T08:18:36.565Z,38.70
2022-11-29T08:21:07.552Z,46.13
2022-11-29T08:23:34.864Z,41.70
2022-11-29T08:26:05.557Z,40.85
2022-11-29T08:28:32.868Z,40.90
2022-11-29T08:31:07.997Z,41.75
2022-11-29T08:33:37.517Z,40.20
2022-11-29T08:36:06.405Z,39.67
2022-11-29T08:38:38.477Z,39.67
2022-11-29T08:41:09.671Z,36.88
2022-11-29T08:43:37.074Z,42.70
2022-11-29T08:46:04.578Z,40.78
2022-11-29T08:48:32.257Z,37.25
2022-11-29T08:50:59.272Z,38.92
2022-11-29T08:53:43.198Z,39.10
2022-11-29T08:59:06.224Z,35.25
2022-11-29T09:01:34.423Z,38.75
2022-11-29T09:04:07.097Z,38.47
2022-11-29T09:06:39.577Z,39.20
2022-11-29T09:09:07.281Z,38.50
2022-11-29T09:11:36.219Z,35.15
2022-11-29T09:14:12.083Z,35.42
2022-11-29T09:16:39.112Z,38.88
2022-11-29T09:19:07.312Z,35.88
2022-11-29T09:21:36.800Z,33.80
2022-11-29T09:24:06.569Z,38.25
2022-11-29T09:26:38.098Z,35.40
2022-11-29T09:29:06.681Z,36.53
2022-11-29T09:31:35.075Z,32.45
2022-11-29T09:34:02.635Z,32.05
2022-11-29T09:36:31.004Z,35.25
2022-11-29T09:39:02.936Z,39.88
2022-11-29T09:41:48.333Z,38.03
2022-11-29T09:44:20.266Z,32.63
2022-11-29T09:47:17.141Z,35.92
2022-11-29T09:50:09.442Z,38.05
2022-11-29T09:52:58.476Z,37.50
2022-11-29T09:55:55.982Z,35.22
2022-11-29T09:58:31.940Z,31.02
2022-11-29T10:01:08.406Z,32.70
2022-11-29T10:03:49.109Z,30.75
2022-11-29T10:06:29.179Z,29.73
2022-11-29T10:09:04.251Z,31.85
2022-11-29T10:11:54.476Z,33.15
2022-11-29T10:14:27.321Z,31.42
2022-11-29T10:17:29.318Z,36.75
2022-11-29T10:20:03.600Z,35.05
2022-11-29T10:22:43.994Z,32.67
2022-11-29T10:25:20.359Z,32.95
2022-11-29T10:27:47.626Z,36.08
2022-11-29T10:30:16.213Z,31.67
2022-11-29T10:32:46.854Z,32.60
2022-11-29T10:35:20.709Z,33.22
2022-11-29T10:38:22.278Z,31.33
2022-11-29T10:40:39.897Z,38.63
2022-11-29T10:43:09.057Z,28.67
2022-11-29T10:45:46.011Z,33.85
2022-11-29T10:48:19.259Z,32.67
2022-11-29T10:50:48.829Z,32.28
2022-11-29T10:53:19.969Z,28.83
2022-11-29T10:55:56.181Z,29.88
2022-11-29T10:58:28.275Z,29.63
2022-11-29T11:01:07.022Z,33.28
2022-11-29T11:03:42.821Z,30.73
2022-11-29T11:06:21.394Z,30.52
2022-11-29T11:08:55.556Z,31.77
2022-11-29T11:11:27.153Z,32.38
2022-11-29T11:14:21.998Z,32.47
2022-11-29T11:16:49.573Z,32.20
2022-11-29T11:19:34.575Z,34.30
2022-11-29T11:22:03.313Z,31.55
2022-11-29T11:24:33.487Z,32.20
2022-11-29T11:27:01.440Z,30.10
2022-11-29T11:29:41.805Z,33.75
2022-11-29T11:32:20.245Z,34.08
2022-11-29T11:34:56.631Z,33.33
2022-11-29T11:37:32.452Z,31.27
2022-11-29T11:40:18.856Z,30.15
2022-11-29T11:45:13.718Z,32.33
2022-11-29T11:47:51.881Z,30.02
2022-11-29T11:50:32.761Z,36.20
2022-11-29T11:53:07.114Z,31.30
2022-11-29T11:55:39.597Z,33.38
2022-11-29T11:58:16.189Z,30.27
2022-11-29T12:01:08.105Z,31.92
2022-11-29T12:03:56.899Z,33.80
2022-11-29T12:06:40.037Z,32.90
2022-11-29T12:09:25.331Z,39.08
2022-11-29T12:12:16.306Z,28.77
2022-11-29T12:15:02.025Z,37.75
2022-11-29T12:17:40.791Z,33.53
2022-11-29T12:20:13.864Z,34.58
2022-11-29T12:22:53.309Z,30.98
2022-11-29T12:25:32.297Z,30.50
2022-11-29T12:27:59.854Z,30.58
2022-11-29T12:30:27.133Z,33.58
2022-11-29T12:33:37.914Z,31.67
2022-11-29T12:36:10.581Z,33.45
2022-11-29T12:39:14.032Z,28.13
2022-11-29T12:41:53.786Z,39.70
2022-11-29T12:44:37.754Z,39.30
2022-11-29T12:47:35.325Z,35.03
2022-11-29T12:53:00.169Z,35.90
2022-11-29T12:55:46.397Z,53.20
2022-11-29T12:58:30.495Z,55.58
2022-11-29T13:01:26.339Z,26.80
2022-11-29T13:04:08.245Z,27.27
2022-11-29T13:06:55.818Z,29.52
2022-11-29T13:09:29.486Z,39.97
2022-11-29T13:12:13.051Z,26.25
2022-11-29T13:15:02.297Z,28.73
2022-11-29T13:17:40.140Z,25.23
2022-11-29T13:20:33.678Z,34.67
2022-11-29T13:23:45.723Z,29.80
2022-11-29T13:26:16.699Z,34.63
2022-11-29T13:28:46.655Z,31.33
2022-11-29T13:31:25.567Z,37.05
2022-11-29T13:33:58.913Z,33.47
2022-11-29T13:36:50.873Z,32.63
2022-11-29T13:39:58.206Z,31.20
2022-11-29T13:45:31.828Z,28.73
2022-11-29T13:48:01.245Z,29.60
2022-11-29T13:50:36.343Z,32.25
2022-11-29T13:53:11.872Z,29.77
2022-11-29T13:55:51.734Z,28.40
2022-11-29T13:58:21.422Z,32.72
2022-11-29T14:00:52.239Z,31.25
2022-11-29T14:03:26.140Z,30.65
2022-11-29T14:06:04.833Z,31.35
2022-11-29T14:11:43.888Z,31.02
2022-11-29T14:14:21.255Z,31.88
2022-11-29T14:17:05.112Z,41.60
2022-11-29T14:19:34.638Z,31.92
2022-11-29T14:22:01.925Z,32.78
2022-11-29T14:24:32.047Z,43.70
2022-11-29T14:27:14.585Z,35.03
2022-11-29T14:29:50.899Z,37.97
2022-11-29T14:32:24.316Z,40.92
2022-11-29T14:35:12.759Z,40.75
2022-11-29T14:38:06.591Z,35.47
2022-11-29T14:40:45.810Z,34.42
2022-11-29T14:43:22.471Z,37.50
2022-11-29T14:46:28.983Z,39.08
2022-11-29T14:51:26.667Z,34.75
2022-11-29T14:54:15.429Z,37.75
2022-11-29T14:56:45.008Z,34.80
2022-11-29T14:59:40.409Z,34.40
2022-11-29T15:02:12.799Z,35.05
2022-11-29T15:04:43.322Z,36.42
2022-11-29T15:07:17.351Z,37.15
2022-11-29T15:09:48.805Z,41.22
2022-11-29T15:12:31.903Z,40.08
2022-11-29T15:15:30.359Z,36.97
2022-11-29T15:18:22.230Z,38.67
2022-11-29T15:21:03.913Z,33.72
2022-11-29T15:23:41.450Z,38.00
2022-11-29T15:26:21.032Z,38.92
2022-11-29T15:28:50.451Z,42.28
2022-11-29T15:31:20.585Z,41.22
2022-11-29T15:33:49.744Z,42.88
2022-11-29T15:36:22.656Z,40.53
2022-11-29T15:38:52.240Z,40.85
2022-11-29T15:41:26.886Z,44.55
2022-11-29T15:43:58.265Z,42.28
2022-11-29T15:46:27.758Z,41.67
2022-11-29T15:48:56.136Z,47.42
2022-11-29T15:51:37.626Z,43.85
2022-11-29T15:54:13.996Z,46.42
2022-11-29T15:56:49.604Z,43.78
2022-11-29T15:59:34.614Z,45.35
2022-11-29T16:02:16.941Z,41.10
2022-11-29T16:04:47.351Z,50.55
2022-11-29T16:07:18.813Z,46.00
2022-11-29T16:09:52.088Z,43.83
2022-11-29T16:12:19.532Z,40.90
2022-11-29T16:15:01.226Z,47.55
2022-11-29T16:17:36.565Z,43.80
2022-11-29T16:20:19.422Z,48.70
2022-11-29T16:23:04.146Z,47.55
2022-11-29T16:25:37.356Z,44.90
2022-11-29T16:28:13.008Z,46.70
2022-11-29T16:30:44.026Z,51.05
2022-11-29T16:33:24.191Z,47.88
2022-11-29T16:36:02.606Z,49.50
2022-11-29T16:38:30.339Z,46.08
2022-11-29T16:41:08.634Z,53.35
2022-11-29T16:43:47.598Z,51.25
2022-11-29T16:46:30.302Z,49.95
2022-11-29T16:49:00.944Z,48.88
2022-11-29T16:51:39.146Z,51.60
2022-11-29T16:54:23.424Z,46.80
2022-11-29T16:56:53.277Z,50.90
2022-11-29T16:59:27.435Z,50.10
2022-11-29T17:01:57.104Z,51.35
2022-11-29T17:04:25.875Z,50.38
2022-11-29T17:06:57.966Z,53.00
2022-11-29T17:09:28.313Z,50.42
2022-11-29T17:12:01.232Z,52.38
2022-11-29T17:14:29.559Z,60.85
2022-11-29T17:16:57.417Z,83.38
2022-11-29T17:19:29.714Z,60.20
2022-11-29T17:21:57.318Z,61.10
2022-11-29T17:24:24.986Z,60.20
2022-11-29T17:26:52.601Z,50.92
2022-11-29T17:29:20.519Z,56.17
2022-11-29T17:31:56.559Z,46.22
2022-11-29T17:34:24.959Z,53.28
2022-11-29T17:36:55.043Z,55.63
2022-11-29T17:39:23.980Z,51.88
2022-11-29T17:41:51.959Z,55.08
2022-11-29T17:44:19.949Z,53.38
2022-11-29T17:46:50.405Z,57.00
2022-11-29T17:49:38.596Z,59.00
2022-11-29T17:52:05.854Z,58.33
2022-11-29T17:54:33.657Z,59.13
2022-11-29T17:57:04.127Z,56.00
2022-11-29T17:59:32.064Z,54.67
2022-11-29T18:02:04.998Z,57.42
2022-11-29T18:04:35.146Z,52.60
2022-11-29T18:07:03.136Z,55.42
2022-11-29T18:09:31.092Z,53.42
2022-11-29T18:12:02.671Z,52.63
2022-11-29T18:17:12.942Z,64.95
2022-11-29T18:19:43.171Z,57.22
2022-11-29T18:22:11.250Z,72.07
2022-11-29T18:24:44.737Z,76.32
2022-11-29T18:27:12.368Z,86.25
2022-11-29T18:29:40.619Z,72.63
2022-11-29T18:32:08.631Z,67.95
2022-11-29T18:34:36.949Z,63.25
2022-11-29T18:37:05.218Z,68.22
2022-11-29T18:39:33.236Z,58.08
2022-11-29T18:42:01.128Z,64.90
2022-11-29T18:44:33.349Z,65.75
2022-11-29T18:47:04.456Z,57.45
2022-11-29T18:49:32.321Z,64.03
2022-11-29T18:52:03.719Z,63.20
2022-11-29T18:54:31.581Z,63.88
2022-11-29T18:56:59.370Z,60.15
2022-11-29T18:59:30.777Z,62.70
2022-11-29T19:01:59.395Z,70.18
2022-11-29T19:04:27.971Z,67.25
2022-11-29T19:06:58.122Z,63.40
2022-11-29T19:09:26.175Z,66.40
2022-11-29T19:11:57.126Z,63.63
2022-11-29T19:14:25.357Z,67.00
2022-11-29T19:16:53.558Z,64.97
2022-11-29T19:19:23.467Z,67.07
2022-11-29T19:21:51.881Z,70.00
2022-11-29T19:24:30.064Z,69.65
2022-11-29T19:26:58.167Z,75.93
2022-11-29T19:29:26.417Z,74.63
2022-11-29T19:31:55.717Z,71.88
2022-11-29T19:34:24.402Z,66.05
2022-11-29T19:36:55.243Z,68.72
2022-11-29T19:39:29.312Z,65.95
2022-11-29T19:41:57.448Z,66.88
2022-11-29T19:44:29.886Z,66.63
2022-11-29T19:46:59.462Z,62.38
2022-11-29T19:49:27.980Z,64.35
2022-11-29T19:51:56.092Z,71.40
2022-11-29T19:54:24.304Z,66.60
2022-11-29T19:56:52.970Z,64.55
2022-11-29T19:59:23.487Z,65.47
2022-11-29T20:01:52.107Z,68.78
2022-11-29T20:04:20.744Z,64.50
2022-11-29T20:06:52.121Z,63.80
2022-11-29T20:09:22.917Z,65.57
2022-11-29T20:11:51.969Z,70.53
2022-11-29T20:14:25.303Z,75.53
2022-11-29T20:16:55.317Z,69.28
2022-11-29T20:19:24.019Z,71.32
2022-11-29T20:21:53.086Z,65.30
2022-11-29T20:24:21.797Z,77.13
2022-11-29T20:26:50.368Z,69.32
2022-11-29T20:29:22.485Z,73.13
2022-11-29T20:31:51.372Z,70.80
2022-11-29T20:34:22.303Z,70.60
2022-11-29T20:37:19.507Z,74.50
2022-11-29T20:40:19.721Z,77.07
2022-11-29T20:43:04.370Z,82.38
2022-11-29T20:45:35.050Z,76.72
2022-11-29T20:48:19.944Z,80.72
2022-11-29T20:51:00.664Z,74.80
2022-11-29T20:53:31.271Z,75.85
2022-11-29T20:56:01.320Z,83.82
2022-11-29T20:58:29.570Z,76.13
2022-11-29T21:00:59.798Z,79.13
2022-11-29T21:03:29.484Z,80.00
2022-11-29T21:05:58.558Z,75.75
2022-11-29T21:08:27.241Z,75.53
2022-11-29T21:10:55.573Z,77.22
2022-11-29T21:13:23.763Z,74.60
2022-11-29T21:15:54.615Z,86.68
2022-11-29T21:18:25.443Z,78.63
2022-11-29T21:21:28.750Z,84.50
2022-11-29T21:23:57.661Z,84.68
2022-11-29T21:26:37.160Z,90.53
2022-11-29T21:29:10.280Z,89.82
2022-11-29T21:31:37.965Z,83.10
2022-11-29T21:34:08.920Z,83.43
2022-11-29T21:36:37.567Z,81.88
2022-11-29T21:39:10.937Z,80.57
2022-11-29T21:41:39.028Z,76.38
2022-11-29T21:44:07.744Z,85.50
2022-11-29T21:46:35.538Z,77.32
2022-11-29T21:49:02.841Z,76.75
2022-11-29T21:51:30.138Z,79.85
2022-11-29T21:53:57.143Z,79.07
2022-11-29T21:56:24.614Z,88.47
2022-11-29T21:58:51.672Z,80.65
2022-11-29T22:01:20.659Z,80.60
2022-11-29T22:03:48.185Z,86.00
2022-11-29T22:06:24.388Z,73.70
2022-11-29T22:08:51.794Z,78.90
2022-11-29T22:11:36.622Z,79.22
2022-11-29T22:14:18.874Z,69.30
2022-11-29T22:16:53.878Z,73.82
2022-11-29T22:19:28.475Z,70.03
2022-11-29T22:22:01.531Z,77.03
2022-11-29T22:24:32.168Z,77.97
2022-11-29T22:26:59.883Z,70.22
2022-11-29T22:29:29.717Z,71.18
2022-11-29T22:31:59.381Z,65.80
2022-11-29T22:34:27.617Z,74.50
2022-11-29T22:36:56.354Z,69.20
2022-11-29T22:39:24.161Z,74.03
2022-11-29T22:42:01.219Z,69.18
2022-11-29T22:44:30.354Z,64.55
2022-11-29T22:46:58.362Z,69.28
2022-11-29T22:49:25.835Z,65.82
2022-11-29T22:51:53.854Z,68.68
2022-11-29T22:54:21.134Z,67.25
2022-11-29T22:56:48.901Z,71.13
2022-11-29T22:59:16.008Z,70.20
2022-11-29T23:01:44.145Z,67.82
2022-11-29T23:04:13.207Z,63.78
2022-11-29T23:06:45.045Z,64.47
2022-11-29T23:09:16.575Z,67.22
2022-11-29T23:11:48.544Z,65.88
2022-11-29T23:14:16.106Z,63.40
2022-11-29T23:16:43.686Z,71.57
2022-11-29T23:19:10.746Z,69.72
2022-11-29T23:21:40.102Z,70.25
2022-11-29T23:24:07.416Z,70.20
2022-11-29T23:26:40.359Z,67.57
2022-11-29T23:29:10.246Z,72.15
2022-11-29T23:31:37.789Z,67.03
2022-11-29T23:34:05.497Z,67.03
2022-11-29T23:36:33.472Z,73.93
2022-11-29T23:39:00.976Z,72.95
2022-11-29T23:41:28.410Z,69.70
2022-11-29T23:43:55.392Z,69.30
2022-11-29T23:46:24.079Z,74.40
2022-11-29T23:48:51.319Z,77.30
2022-11-29T23:51:19.761Z,75.85
2022-11-29T23:53:50.958Z,81.07
2022-11-29T23:56:19.962Z,87.65
2022-11-29T23:58:47.300Z,88.03
